SNOW

Not for real navigation. The accuracy of this data is not assured See disclaimer for more information

No stations matching search criteria

ICAO NAME COUNTRY WIND Kt GUST Kt VIS m TEMP/DEW C BARO METAR
CYDL 3 0 1600 0/0 29.88 CYDL 191344Z AUTO 23003KT 1 0.75SM -SN 00/00 A2988 RMK ICG PAST HR CLD MISG SLP144
CYLT Alert Airport Canada 4 0 3200 0/-1 29.89 CYLT 191333Z 31004KT 2SM -SN BKN006 OVC020 M00/M01 A2989 RMK ST6SC2 SLP124
CYCY Clyde, N. W. T. Canada 8 0 6400 5/5 30.01 CYCY 191300Z 34008KT 320V030 4SM -DZ BR OVC005 05/05 A3001 RMK ST8 R00 AFT 19UTC/0 SNW CVR SLP167
NZCM Williams Field Antarctica 12 21 9999 -14/-21 28.74 NZCM 191155Z 19012G21KT 9999 CAVOK M14/M21 A2874 RMK AO2A PK WND 16028/0744 SNE0950 SLP739 T11361210